Time;durP1;ratioP1;P1;durP2;ratioP2;P2;SDS_P1;SDS_P2;PMS_P1;PMS_P2;Temp;Humidity;BMP_temperature;BMP_pressure;BME280_temperature;BME280_humidity;BME280_pressure;Samples;Min_cycle;Max_cycle;Signal;HPM_P1;HPM_P2
2023/06/03 00:00:51;;;;;;;2.05;1.00;;;12.20;85.30;;;;;;5071998;28;20050;-87
2023/06/03 00:03:17;;;;;;;1.75;0.80;;;12.20;85.10;;;;;;5071867;28;20049;-87
2023/06/03 00:05:43;;;;;;;1.92;1.02;;;12.10;84.60;;;;;;5072793;28;20044;-87
2023/06/03 00:08:09;;;;;;;1.60;1.23;;;12.10;84.40;;;;;;5075833;28;20097;-87
2023/06/03 00:10:34;;;;;;;1.67;1.10;;;12.00;83.90;;;;;;5077955;28;20032;-87
2023/06/03 00:13:00;;;;;;;2.45;1.25;;;12.00;83.40;;;;;;5069376;28;20036;-87
2023/06/03 00:15:25;;;;;;;1.20;1.00;;;11.90;83.00;;;;;;5070096;28;20079;-87
2023/06/03 00:17:51;;;;;;;2.13;0.90;;;11.90;82.50;;;;;;5083713;28;20044;-87
2023/06/03 00:20:17;;;;;;;1.20;0.98;;;11.90;82.40;;;;;;5068385;28;20040;-86
2023/06/03 00:22:42;;;;;;;4.97;1.30;;;11.80;82.00;;;;;;5083067;28;20213;-87
2023/06/03 00:25:11;;;;;;;0.98;0.73;;;11.80;81.70;;;;;;5067103;28;20377;-87
2023/06/03 00:27:37;;;;;;;2.08;0.85;;;11.80;81.00;;;;;;5065990;28;20139;-87
2023/06/03 00:30:05;;;;;;;1.10;1.00;;;11.70;80.90;;;;;;5053150;28;20771;-87
2023/06/03 00:32:31;;;;;;;1.67;1.02;;;11.70;80.70;;;;;;5083669;28;20054;-86
2023/06/03 00:34:57;;;;;;;1.50;0.85;;;11.70;80.60;;;;;;5070964;28;20045;-87
2023/06/03 00:37:22;;;;;;;3.03;0.98;;;11.60;80.60;;;;;;5086063;28;20404;-86
2023/06/03 00:39:48;;;;;;;2.85;0.90;;;11.60;80.50;;;;;;5075073;28;20127;-87
2023/06/03 00:42:14;;;;;;;1.35;1.00;;;11.60;80.20;;;;;;5075319;28;20551;-87
2023/06/03 00:44:39;;;;;;;1.90;1.10;;;11.50;80.00;;;;;;5086145;28;20524;-87
2023/06/03 00:47:06;;;;;;;0.98;0.85;;;11.50;79.60;;;;;;5085262;28;20059;-86
2023/06/03 00:49:32;;;;;;;1.92;1.15;;;11.50;79.60;;;;;;5067299;28;20512;-86
2023/06/03 00:51:58;;;;;;;1.27;0.90;;;11.40;79.40;;;;;;5066401;28;20052;-87
2023/06/03 00:54:25;;;;;;;1.63;1.20;;;11.40;79.30;;;;;;5067862;28;20037;-86
2023/06/03 00:56:51;;;;;;;1.35;0.98;;;11.40;79.00;;;;;;5077384;28;20085;-87
2023/06/03 00:59:17;;;;;;;1.48;0.90;;;11.80;78.90;;;;;;5073144;28;20043;-87
2023/06/03 01:01:43;;;;;;;1.75;0.90;;;11.50;78.80;;;;;;5069081;28;20048;-87
2023/06/03 01:04:16;;;;;;;2.65;0.80;;;11.30;78.60;;;;;;5068889;28;20057;-86
2023/06/03 01:07:01;;;;;;;2.15;0.82;;;11.30;78.50;;;;;;5070113;28;20044;-87
2023/06/03 01:09:37;;;;;;;4.00;0.90;;;11.20;78.30;;;;;;5076648;28;20423;-87
2023/06/03 01:12:09;;;;;;;1.77;0.90;;;11.20;78.20;;;;;;5078238;28;20109;-88
2023/06/03 01:14:45;;;;;;;5.60;0.93;;;11.10;78.30;;;;;;5084592;28;20056;-87
2023/06/03 01:17:12;;;;;;;1.95;0.90;;;11.10;78.50;;;;;;5069791;28;20303;-88
2023/06/03 01:19:51;;;;;;;1.75;0.73;;;11.10;78.20;;;;;;5091874;28;20503;-87
2023/06/03 01:22:20;;;;;;;1.00;0.82;;;11.10;78.10;;;;;;5075011;28;20036;-86
2023/06/03 01:24:48;;;;;;;1.63;0.80;;;11.00;78.10;;;;;;5071192;28;20055;-85
2023/06/03 01:27:14;;;;;;;1.65;0.98;;;11.00;78.20;;;;;;5076187;28;20097;-87
2023/06/03 01:29:42;;;;;;;2.08;1.00;;;11.00;78.10;;;;;;5070442;28;20052;-86
2023/06/03 01:32:13;;;;;;;3.15;1.00;;;11.00;78.10;;;;;;5070425;28;20385;-87
2023/06/03 01:34:40;;;;;;;1.10;0.98;;;11.60;78.10;;;;;;5068366;28;20456;-86
2023/06/03 01:37:07;;;;;;;1.10;0.80;;;10.90;78.00;;;;;;5072952;28;20056;-87
2023/06/03 01:39:33;;;;;;;1.73;0.90;;;10.90;78.10;;;;;;5076613;28;20040;-86
2023/06/03 01:41:59;;;;;;;4.93;1.00;;;11.00;78.30;;;;;;5070167;28;20064;-87
2023/06/03 01:44:26;;;;;;;1.88;1.02;;;11.00;78.30;;;;;;5068871;28;20052;-86
2023/06/03 01:46:51;;;;;;;1.38;0.93;;;10.80;78.30;;;;;;5069487;28;20159;-87
2023/06/03 01:49:17;;;;;;;4.13;0.95;;;10.80;78.50;;;;;;5072421;28;20136;-86
2023/06/03 01:51:43;;;;;;;2.35;1.10;;;10.70;78.50;;;;;;5079503;28;20067;-86
2023/06/03 01:54:09;;;;;;;1.85;1.08;;;10.70;78.70;;;;;;5070147;28;20043;-86
2023/06/03 01:56:35;;;;;;;1.10;0.85;;;10.70;79.00;;;;;;5071240;28;20048;-86
2023/06/03 01:59:01;;;;;;;1.00;0.90;;;10.60;79.10;;;;;;5070349;28;20048;-88
2023/06/03 02:01:26;;;;;;;3.45;1.00;;;10.60;79.30;;;;;;5069874;28;20121;-86
2023/06/03 02:03:52;;;;;;;1.00;0.90;;;10.60;79.50;;;;;;5070997;28;20183;-86
2023/06/03 02:06:17;;;;;;;1.85;1.00;;;10.50;79.50;;;;;;5071052;28;20153;-87
2023/06/03 02:08:43;;;;;;;1.33;1.00;;;10.50;79.70;;;;;;5078104;28;20930;-86
2023/06/03 02:11:10;;;;;;;1.48;0.90;;;10.50;79.70;;;;;;5070487;28;20068;-86
2023/06/03 02:13:35;;;;;;;1.63;1.10;;;10.40;79.90;;;;;;5074668;28;20040;-86
2023/06/03 02:16:01;;;;;;;1.30;0.90;;;10.40;80.00;;;;;;5081435;28;20059;-87
2023/06/03 02:18:28;;;;;;;2.58;1.48;;;10.40;80.10;;;;;;5069298;28;20041;-87
2023/06/03 02:20:54;;;;;;;2.35;1.02;;;10.40;80.30;;;;;;5073951;28;20045;-87
2023/06/03 02:23:21;;;;;;;1.48;0.93;;;10.30;80.50;;;;;;5069866;28;20515;-88
2023/06/03 02:25:48;;;;;;;4.32;1.02;;;10.30;80.70;;;;;;5087209;28;20098;-87
2023/06/03 02:28:16;;;;;;;1.30;0.82;;;10.30;80.90;;;;;;5069601;28;20075;-87
2023/06/03 02:30:42;;;;;;;1.33;1.10;;;10.20;81.00;;;;;;5081041;28;20156;-87
2023/06/03 02:33:07;;;;;;;1.70;1.00;;;10.20;81.20;;;;;;5090614;28;20130;-87
2023/06/03 02:35:35;;;;;;;1.67;1.17;;;10.10;81.30;;;;;;5079896;28;20404;-86
2023/06/03 02:38:01;;;;;;;1.45;1.10;;;10.10;81.50;;;;;;5091354;28;20036;-87
2023/06/03 02:40:27;;;;;;;1.58;0.80;;;10.10;81.70;;;;;;5072639;28;20079;-87
2023/06/03 02:42:52;;;;;;;1.85;0.80;;;10.10;81.90;;;;;;5069234;28;20064;-86
2023/06/03 02:45:18;;;;;;;1.15;1.00;;;10.00;82.20;;;;;;5075958;28;20055;-87
2023/06/03 02:47:43;;;;;;;2.10;1.10;;;9.90;82.40;;;;;;5086683;28;20460;-87
2023/06/03 02:50:09;;;;;;;2.53;1.02;;;10.00;82.70;;;;;;5083753;28;20127;-86
2023/06/03 02:52:35;;;;;;;2.10;1.13;;;9.90;82.80;;;;;;5073571;28;20037;-88
2023/06/03 02:55:01;;;;;;;1.40;0.90;;;9.90;82.90;;;;;;5079648;28;20047;-87
2023/06/03 02:57:27;;;;;;;1.73;0.93;;;9.80;83.20;;;;;;5087051;28;20042;-87
2023/06/03 02:59:53;;;;;;;1.77;1.25;;;9.80;83.40;;;;;;5073014;28;20036;-87
2023/06/03 03:02:21;;;;;;;1.42;1.10;;;9.80;83.70;;;;;;5073986;28;20051;-86
2023/06/03 03:04:47;;;;;;;3.17;1.20;;;9.80;83.90;;;;;;5073080;28;20032;-87
2023/06/03 03:07:14;;;;;;;2.10;1.00;;;9.70;84.10;;;;;;5071458;28;20123;-86
2023/06/03 03:09:40;;;;;;;1.83;1.10;;;9.70;84.30;;;;;;5069480;28;20098;-86
2023/06/03 03:12:07;;;;;;;3.88;1.10;;;9.70;84.70;;;;;;5082512;28;20052;-87
2023/06/03 03:14:32;;;;;;;1.40;1.08;;;9.70;84.90;;;;;;5090524;28;20522;-86
2023/06/03 03:16:58;;;;;;;1.90;1.17;;;9.60;85.00;;;;;;5072959;28;20044;-87
2023/06/03 03:19:24;;;;;;;2.15;1.45;;;9.70;85.20;;;;;;5079614;28;20078;-87
2023/06/03 03:21:50;;;;;;;1.95;1.23;;;9.90;85.50;;;;;;5068835;28;20068;-87
2023/06/03 03:24:15;;;;;;;3.00;1.17;;;9.60;85.50;;;;;;5078685;28;20089;-87
2023/06/03 03:26:41;;;;;;;2.72;0.90;;;9.60;85.80;;;;;;5078468;28;20133;-88
2023/06/03 03:29:07;;;;;;;2.15;1.10;;;9.60;85.90;;;;;;5083242;28;20075;-87
2023/06/03 03:31:33;;;;;;;2.67;1.23;;;9.60;86.20;;;;;;5083417;28;20052;-87
2023/06/03 03:34:01;;;;;;;4.75;1.13;;;9.60;86.30;;;;;;5074264;28;20049;-87
2023/06/03 03:36:30;;;;;;;3.25;1.20;;;9.60;86.30;;;;;;5077526;28;20033;-87
2023/06/03 03:39:02;;;;;;;1.70;1.20;;;9.60;86.50;;;;;;5068723;28;20458;-87
2023/06/03 03:41:29;;;;;;;3.17;1.00;;;9.70;86.90;;;;;;5093358;28;20059;-87
2023/06/03 03:43:55;;;;;;;3.25;1.33;;;9.60;86.90;;;;;;5067239;28;20040;-88
2023/06/03 03:46:20;;;;;;;1.85;1.10;;;9.60;86.70;;;;;;5070670;28;20056;-88
2023/06/03 03:48:46;;;;;;;1.80;0.95;;;9.60;86.80;;;;;;5069969;28;20040;-87
2023/06/03 03:51:14;;;;;;;2.25;1.15;;;9.60;86.90;;;;;;5086134;28;20065;-87
2023/06/03 03:53:45;;;;;;;1.13;0.95;;;9.60;87.00;;;;;;5093821;28;20083;-87
2023/06/03 03:56:21;;;;;;;1.88;1.08;;;9.60;87.20;;;;;;5081732;28;20119;-88
2023/06/03 03:58:48;;;;;;;4.40;1.15;;;9.60;87.30;;;;;;5082713;28;20659;-87
2023/06/03 04:01:16;;;;;;;2.45;1.17;;;9.60;87.40;;;;;;5067850;28;20044;-87
2023/06/03 04:03:46;;;;;;;2.10;1.10;;;9.60;87.50;;;;;;5067224;28;20059;-86
2023/06/03 04:06:36;;;;;;;1.92;1.05;;;9.60;87.80;;;;;;5084832;28;20407;-86
2023/06/03 04:09:04;;;;;;;7.45;1.33;;;9.70;87.90;;;;;;5077232;28;20462;-87
2023/06/03 04:11:44;;;;;;;2.00;0.90;;;9.60;87.90;;;;;;5085073;28;20036;-87
2023/06/03 04:14:11;;;;;;;1.90;1.40;;;9.70;88.20;;;;;;5085363;28;20097;-87
2023/06/03 04:16:55;;;;;;;2.15;1.50;;;9.80;88.20;;;;;;5080446;28;20483;-87
2023/06/03 04:19:33;;;;;;;1.23;1.15;;;9.70;88.70;;;;;;5066842;28;20102;-87
2023/06/03 04:22:02;;;;;;;1.70;1.05;;;9.70;88.60;;;;;;5068345;28;20115;-87
2023/06/03 04:24:29;;;;;;;1.30;1.10;;;9.80;89.40;;;;;;5065879;28;20135;-87
2023/06/03 04:26:55;;;;;;;1.92;1.05;;;9.80;89.00;;;;;;5068989;28;20140;-87
2023/06/03 04:29:22;;;;;;;2.80;1.40;;;9.80;89.00;;;;;;5069580;28;20580;-87
2023/06/03 04:31:48;;;;;;;2.08;1.30;;;9.90;89.00;;;;;;5066968;28;20040;-87
2023/06/03 04:34:13;;;;;;;1.20;0.95;;;9.90;89.20;;;;;;5051804;28;20777;-87
2023/06/03 04:36:39;;;;;;;3.22;1.50;;;9.90;89.00;;;;;;5050777;28;20059;-87
2023/06/03 04:39:08;;;;;;;2.72;1.45;;;9.90;89.00;;;;;;5057881;28;20043;-87
2023/06/03 04:41:37;;;;;;;2.60;1.20;;;10.00;89.00;;;;;;5077148;28;20051;-87
2023/06/03 04:44:03;;;;;;;1.63;1.17;;;10.10;89.10;;;;;;5065471;28;20048;-87
2023/06/03 04:46:30;;;;;;;1.67;1.17;;;10.10;89.40;;;;;;5075577;28;20090;-86
2023/06/03 04:49:01;;;;;;;2.13;0.98;;;10.10;89.50;;;;;;5081188;28;20128;-87
2023/06/03 04:51:28;;;;;;;2.03;1.20;;;10.20;89.40;;;;;;5087829;28;20138;-87
2023/06/03 04:53:57;;;;;;;2.42;1.00;;;10.20;89.50;;;;;;5083792;28;20039;-87
2023/06/03 04:56:24;;;;;;;1.27;1.15;;;10.30;89.60;;;;;;5066666;28;20055;-87
2023/06/03 04:59:00;;;;;;;3.83;1.92;;;10.30;89.70;;;;;;5074350;28;20045;-87
2023/06/03 05:01:27;;;;;;;1.95;1.33;;;10.30;90.00;;;;;;5071048;28;20332;-87
2023/06/03 05:03:53;;;;;;;5.30;1.30;;;10.60;89.80;;;;;;5079928;28;20040;-88
2023/06/03 05:06:19;;;;;;;1.88;1.35;;;10.40;90.00;;;;;;5070593;28;20052;-86
2023/06/03 05:08:47;;;;;;;4.60;1.52;;;10.50;89.70;;;;;;5093906;28;20508;-87
2023/06/03 05:11:15;;;;;;;1.58;1.40;;;10.60;89.50;;;;;;5068692;28;20612;-88
2023/06/03 05:13:41;;;;;;;3.95;1.38;;;10.60;89.40;;;;;;5066902;28;20125;-88
2023/06/03 05:16:06;;;;;;;1.45;1.20;;;10.70;89.20;;;;;;5074902;28;20722;-88
2023/06/03 05:18:32;;;;;;;2.40;1.23;;;10.80;89.10;;;;;;5087938;28;20044;-88
2023/06/03 05:20:57;;;;;;;1.90;1.30;;;10.80;89.10;;;;;;5085551;28;20036;-88
2023/06/03 05:23:23;;;;;;;1.70;1.25;;;10.90;89.20;;;;;;5086064;28;20123;-88
2023/06/03 05:25:49;;;;;;;2.83;1.17;;;11.00;89.10;;;;;;5095109;28;20573;-87
2023/06/03 05:28:14;;;;;;;2.25;1.30;;;11.40;89.00;;;;;;5108910;28;20077;-88
2023/06/03 05:30:40;;;;;;;3.67;1.50;;;12.50;86.70;;;;;;5108851;28;20091;-88
2023/06/03 05:33:05;;;;;;;2.88;1.40;;;13.80;83.20;;;;;;5108345;28;20054;-88
2023/06/03 05:35:32;;;;;;;2.50;1.50;;;15.00;80.20;;;;;;5105354;28;20123;-88
2023/06/03 05:37:58;;;;;;;3.25;1.40;;;16.00;76.50;;;;;;5091841;28;20059;-88
2023/06/03 05:40:23;;;;;;;3.83;1.70;;;16.80;73.70;;;;;;5109372;28;20499;-87
2023/06/03 05:42:49;;;;;;;2.45;1.83;;;17.70;70.90;;;;;;5108226;28;20055;-87
2023/06/03 05:45:16;;;;;;;2.85;1.50;;;17.90;67.40;;;;;;5105661;28;20116;-87
2023/06/03 05:47:41;;;;;;;2.97;1.58;;;18.50;66.60;;;;;;5068170;28;20045;-86
2023/06/03 05:50:07;;;;;;;4.65;1.70;;;18.80;65.30;;;;;;5083151;28;20517;-87
2023/06/03 05:52:33;;;;;;;2.30;1.77;;;19.20;64.40;;;;;;5068111;28;20063;-87
2023/06/03 05:54:58;;;;;;;4.13;1.52;;;19.50;63.40;;;;;;5101052;28;20450;-90
2023/06/03 05:57:24;;;;;;;2.03;1.48;;;19.80;62.00;;;;;;5065175;28;20046;-88
2023/06/03 05:59:53;;;;;;;2.45;1.20;;;20.10;61.00;;;;;;5081577;28;20679;-87
2023/06/03 06:02:21;;;;;;;1.50;1.20;;;20.50;60.00;;;;;;5086643;28;20040;-85
2023/06/03 06:04:47;;;;;;;2.47;1.15;;;20.60;59.30;;;;;;5091766;28;20426;-85
2023/06/03 06:07:12;;;;;;;4.53;1.35;;;20.90;58.90;;;;;;5083499;28;20159;-85
2023/06/03 06:09:38;;;;;;;2.72;1.27;;;21.00;57.90;;;;;;5070073;28;20052;-86
2023/06/03 06:12:04;;;;;;;2.08;1.30;;;21.40;57.00;;;;;;5085884;28;20075;-87
2023/06/03 06:14:30;;;;;;;1.67;1.25;;;21.20;56.00;;;;;;5110905;28;20044;-90
2023/06/03 06:16:56;;;;;;;2.10;1.45;;;20.60;56.70;;;;;;5100608;28;20055;-87
2023/06/03 06:19:23;;;;;;;2.17;1.20;;;20.00;57.30;;;;;;5070728;28;20041;-89
2023/06/03 06:21:50;;;;;;;2.45;1.10;;;19.40;57.80;;;;;;5072893;28;20139;-91
2023/06/03 06:24:19;;;;;;;1.90;1.13;;;19.50;58.20;;;;;;5074925;28;20039;-95
2023/06/03 06:26:48;;;;;;;1.30;1.00;;;20.00;56.60;;;;;;5077868;28;20117;-88
2023/06/03 06:29:14;;;;;;;1.55;1.10;;;20.60;56.30;;;;;;5111248;28;20063;-92
2023/06/03 06:31:39;;;;;;;1.85;0.93;;;21.10;55.60;;;;;;5112884;28;20055;-90
2023/06/03 06:34:05;;;;;;;1.35;1.20;;;20.90;55.00;;;;;;5112968;28;20051;-90
2023/06/03 06:36:37;;;;;;;1.67;0.95;;;20.40;55.50;;;;;;5111860;28;20100;-90
2023/06/03 06:39:04;;;;;;;2.25;0.90;;;19.60;55.30;;;;;;5111494;28;20091;-89
2023/06/03 06:41:36;;;;;;;1.95;1.30;;;18.90;57.20;;;;;;5095939;28;20078;-89
2023/06/03 06:44:01;;;;;;;2.03;1.00;;;18.40;58.20;;;;;;5081758;28;20460;-91
2023/06/03 06:46:27;;;;;;;2.13;0.90;;;18.00;59.00;;;;;;5079954;28;20071;-89
2023/06/03 06:48:53;;;;;;;3.72;1.20;;;17.90;59.40;;;;;;5086634;28;20067;-90
2023/06/03 06:51:19;;;;;;;2.15;1.13;;;17.70;59.30;;;;;;5069642;28;20044;-90
2023/06/03 06:53:52;;;;;;;3.08;1.20;;;17.40;58.90;;;;;;5069056;28;20060;-89
2023/06/03 06:56:21;;;;;;;1.35;0.93;;;17.30;59.30;;;;;;5053572;28;20481;-90
2023/06/03 06:58:47;;;;;;;1.85;0.88;;;17.30;59.90;;;;;;5072596;28;20044;-90
2023/06/03 07:01:13;;;;;;;2.55;1.08;;;17.40;59.90;;;;;;5100320;28;20479;-90
2023/06/03 07:03:41;;;;;;;1.42;0.90;;;17.20;59.60;;;;;;5093436;28;20048;-90
2023/06/03 07:06:08;;;;;;;1.65;1.10;;;17.10;59.50;;;;;;5091834;28;20039;-89
2023/06/03 07:08:34;;;;;;;1.55;1.00;;;17.20;59.60;;;;;;5091011;28;20083;-88
2023/06/03 07:11:02;;;;;;;1.50;1.00;;;17.30;59.40;;;;;;5074529;28;20111;-89
2023/06/03 07:13:29;;;;;;;1.02;0.98;;;17.40;60.00;;;;;;5092080;28;20385;-88
2023/06/03 07:15:55;;;;;;;2.20;0.88;;;17.60;59.60;;;;;;5091364;28;20478;-87
2023/06/03 07:18:21;;;;;;;2.75;1.30;;;17.60;59.10;;;;;;5090405;28;20072;-90
2023/06/03 07:20:48;;;;;;;1.73;1.00;;;17.80;58.90;;;;;;5072670;28;20075;-88
2023/06/03 07:23:24;;;;;;;2.97;0.80;;;17.80;58.40;;;;;;5090824;28;20051;-88
2023/06/03 07:25:52;;;;;;;4.65;1.52;;;17.90;57.30;;;;;;5090671;28;20500;-89
2023/06/03 07:28:29;;;;;;;0.88;0.77;;;17.60;57.40;;;;;;5092244;28;20063;-89
2023/06/03 07:30:59;;;;;;;1.30;0.82;;;17.80;57.50;;;;;;5090015;28;20055;-90
2023/06/03 07:33:30;;;;;;;1.52;1.05;;;17.80;57.70;;;;;;5104846;28;20463;-89
2023/06/03 07:36:01;;;;;;;0.75;0.70;;;17.80;57.80;;;;;;5092199;28;20109;-89
2023/06/03 07:38:42;;;;;;;2.35;0.98;;;17.90;57.50;;;;;;5070403;28;20771;-89
2023/06/03 07:41:11;;;;;;;1.50;0.90;;;17.90;57.30;;;;;;5071147;28;20488;-92
2023/06/03 07:43:40;;;;;;;1.67;1.10;;;18.30;57.50;;;;;;5069498;28;20049;-86
2023/06/03 07:46:08;;;;;;;2.10;0.88;;;17.80;57.20;;;;;;5068670;28;20135;-86
2023/06/03 07:48:37;;;;;;;1.33;0.95;;;18.10;57.30;;;;;;5069499;28;20500;-86
2023/06/03 07:51:04;;;;;;;1.77;1.05;;;18.10;57.00;;;;;;5086960;28;20109;-86
2023/06/03 07:53:35;;;;;;;3.22;1.30;;;18.10;56.70;;;;;;5071451;28;20050;-86
2023/06/03 07:56:09;;;;;;;2.53;0.95;;;18.20;56.80;;;;;;5089414;28;20107;-85
2023/06/03 07:58:36;;;;;;;2.83;0.90;;;18.40;55.80;;;;;;5089592;28;20402;-86
2023/06/03 08:01:03;;;;;;;3.17;0.90;;;18.70;55.70;;;;;;5087951;28;20145;-86
2023/06/03 08:03:30;;;;;;;1.13;1.02;;;18.50;54.80;;;;;;5087283;28;20502;-86
2023/06/03 08:05:56;;;;;;;2.92;0.95;;;18.60;54.70;;;;;;5098844;28;20040;-87
2023/06/03 08:08:32;;;;;;;1.73;1.02;;;18.90;53.90;;;;;;5088115;28;20045;-87
2023/06/03 08:11:00;;;;;;;2.00;0.90;;;19.20;53.30;;;;;;5088150;28;20056;-86
2023/06/03 08:13:25;;;;;;;1.35;0.80;;;19.20;53.40;;;;;;5065776;28;20048;-88
2023/06/03 08:15:51;;;;;;;0.70;0.70;;;19.00;53.10;;;;;;5091497;28;20378;-90
2023/06/03 08:18:42;;;;;;;2.25;0.70;;;19.30;53.60;;;;;;5090610;28;20044;-88
2023/06/03 08:21:12;;;;;;;2.15;0.85;;;19.40;52.50;;;;;;5072526;28;20122;-90
2023/06/03 08:23:38;;;;;;;1.95;0.98;;;19.30;52.20;;;;;;5089807;28;20040;-87
2023/06/03 08:26:04;;;;;;;2.97;0.95;;;19.50;52.40;;;;;;5088653;28;20055;-87
2023/06/03 08:28:30;;;;;;;0.95;0.80;;;19.60;51.80;;;;;;5086797;28;20040;-88
2023/06/03 08:30:55;;;;;;;2.75;0.70;;;19.40;50.80;;;;;;5097461;28;20051;-89
2023/06/03 08:33:22;;;;;;;1.20;0.82;;;19.40;50.40;;;;;;5086028;28;20133;-87
2023/06/03 08:35:48;;;;;;;1.60;0.70;;;19.50;50.20;;;;;;5069535;28;20051;-88
2023/06/03 08:38:16;;;;;;;2.10;0.73;;;19.30;49.40;;;;;;5071611;28;20052;-88
2023/06/03 08:40:49;;;;;;;0.95;0.73;;;19.10;49.80;;;;;;5075275;28;20039;-90
2023/06/03 08:43:16;;;;;;;2.78;0.75;;;19.00;49.60;;;;;;5083033;28;20036;-88
2023/06/03 08:46:19;;;;;;;1.95;0.90;;;19.20;49.70;;;;;;5089472;28;20066;-90
2023/06/03 08:49:04;;;;;;;0.98;0.73;;;19.50;48.60;;;;;;5081967;28;20050;-89
2023/06/03 08:51:37;;;;;;;2.47;0.80;;;19.70;47.10;;;;;;5105946;28;20044;-90
2023/06/03 08:54:13;;;;;;;2.17;0.80;;;19.90;47.30;;;;;;5054613;28;20040;-92
2023/06/03 08:56:54;;;;;;;1.23;1.10;;;20.00;47.80;;;;;;5076146;28;20055;-90
2023/06/03 08:59:23;;;;;;;2.63;0.80;;;20.30;47.20;;;;;;5088670;28;20503;-89
2023/06/03 09:01:52;;;;;;;4.63;0.82;;;20.20;47.70;;;;;;5090257;28;20410;-90
2023/06/03 09:04:19;;;;;;;1.10;0.70;;;20.10;47.40;;;;;;5089712;28;20044;-90
2023/06/03 09:06:49;;;;;;;1.20;1.10;;;20.50;47.40;;;;;;5088028;28;20047;-90
2023/06/03 09:09:15;;;;;;;1.85;0.90;;;20.20;46.80;;;;;;5091333;28;20511;-89
2023/06/03 09:11:43;;;;;;;0.88;0.70;;;20.40;47.30;;;;;;5089250;28;20040;-89
2023/06/03 09:14:10;;;;;;;1.83;0.80;;;20.50;46.90;;;;;;5086417;28;20072;-90
2023/06/03 09:16:36;;;;;;;0.73;0.73;;;20.20;46.90;;;;;;5089465;28;20505;-88
2023/06/03 09:19:03;;;;;;;4.50;1.42;;;20.10;47.30;;;;;;5086773;28;20087;-88
2023/06/03 09:21:29;;;;;;;2.10;0.70;;;20.00;46.90;;;;;;5086477;28;20036;-87
2023/06/03 09:23:55;;;;;;;4.32;0.70;;;19.60;46.60;;;;;;5087530;28;20047;-90
2023/06/03 09:26:21;;;;;;;3.50;0.88;;;19.30;46.30;;;;;;5071054;28;20495;-88
2023/06/03 09:28:47;;;;;;;2.13;0.80;;;19.20;47.00;;;;;;5086610;28;20074;-88
2023/06/03 09:31:13;;;;;;;1.05;0.73;;;18.80;47.30;;;;;;5088644;28;20091;-87
2023/06/03 09:33:41;;;;;;;2.33;0.80;;;18.70;47.40;;;;;;5089742;28;20114;-89
2023/06/03 09:36:07;;;;;;;1.02;0.88;;;18.80;47.90;;;;;;5080452;28;20045;-89
2023/06/03 09:38:52;;;;;;;1.00;0.90;;;18.70;48.20;;;;;;5090641;28;20086;-88
2023/06/03 09:41:26;;;;;;;2.38;0.70;;;18.80;48.30;;;;;;5090779;28;20048;-88
2023/06/03 09:43:54;;;;;;;2.47;1.90;;;18.90;47.80;;;;;;5067872;28;20044;-88
2023/06/03 09:46:20;;;;;;;0.88;0.70;;;19.10;48.30;;;;;;5071143;28;20044;-86
2023/06/03 09:48:45;;;;;;;1.00;0.80;;;19.20;47.50;;;;;;5087482;28;20050;-86
2023/06/03 09:51:11;;;;;;;0.70;0.70;;;19.50;47.70;;;;;;5090193;28;20074;-87
2023/06/03 09:53:37;;;;;;;1.83;0.93;;;19.30;47.50;;;;;;5087813;28;20510;-87
2023/06/03 09:56:26;;;;;;;7.13;1.00;;;19.30;47.60;;;;;;5090173;28;20044;-87
2023/06/03 09:59:15;;;;;;;0.82;0.75;;;19.50;46.70;;;;;;5080042;28;20499;-87
2023/06/03 10:01:41;;;;;;;1.08;0.85;;;19.70;47.30;;;;;;5091301;28;20157;-86
2023/06/03 10:04:08;;;;;;;1.83;0.80;;;19.90;46.90;;;;;;5097354;28;20050;-87
2023/06/03 10:06:35;;;;;;;2.55;0.82;;;19.90;46.60;;;;;;5075088;28;20411;-85
2023/06/03 10:09:21;;;;;;;1.35;1.00;;;19.80;46.30;;;;;;5069427;28;20049;-87
2023/06/03 10:11:51;;;;;;;1.90;0.70;;;20.00;47.10;;;;;;5073330;28;20051;-86
2023/06/03 10:14:21;;;;;;;1.67;0.70;;;20.20;47.60;;;;;;5092135;28;20036;-88
2023/06/03 10:17:10;;;;;;;0.93;0.70;;;20.40;46.40;;;;;;5081532;28;20089;-87
2023/06/03 10:19:38;;;;;;;3.08;0.82;;;20.20;45.70;;;;;;5083388;28;20079;-84
2023/06/03 10:22:05;;;;;;;4.20;1.10;;;20.10;46.00;;;;;;5079571;28;20041;-89
2023/06/03 10:24:45;;;;;;;0.95;0.60;;;20.10;46.50;;;;;;5075420;28;20466;-89
2023/06/03 10:27:13;;;;;;;1.98;0.70;;;20.60;46.20;;;;;;5080549;28;20214;-92
2023/06/03 10:29:39;;;;;;;1.00;0.75;;;20.40;46.30;;;;;;5096063;28;20388;-92
2023/06/03 10:32:07;;;;;;;1.25;0.80;;;20.50;46.70;;;;;;5115287;28;20177;-93
2023/06/03 10:34:42;;;;;;;1.20;0.90;;;20.60;46.30;;;;;;5114231;28;20039;-93
2023/06/03 10:37:09;;;;;;;0.65;0.57;;;20.60;45.40;;;;;;5114436;28;20082;-90
2023/06/03 10:39:35;;;;;;;2.50;0.85;;;20.70;45.70;;;;;;5113808;28;20827;-93
2023/06/03 10:42:03;;;;;;;0.70;0.70;;;20.50;45.10;;;;;;5113282;28;20132;-91
2023/06/03 10:44:33;;;;;;;2.08;0.90;;;20.40;45.00;;;;;;5093230;28;20075;-92
2023/06/03 10:47:04;;;;;;;1.95;0.63;;;20.30;45.70;;;;;;5086832;28;20040;-92
2023/06/03 10:50:02;;;;;;;1.40;0.80;;;20.30;45.30;;;;;;5072229;28;20119;-93
2023/06/03 10:53:06;;;;;;;1.00;0.77;;;20.40;44.30;;;;;;5042280;28;20059;-93
2023/06/03 10:55:46;;;;;;;0.57;0.52;;;20.60;45.00;;;;;;5084777;28;20488;-90
2023/06/03 10:58:24;;;;;;;1.10;0.60;;;20.50;43.20;;;;;;5074135;28;20067;-92
2023/06/03 11:01:05;;;;;;;2.10;0.80;;;20.50;44.70;;;;;;5089853;28;20080;-94
2023/06/03 11:03:53;;;;;;;1.10;0.88;;;20.50;44.70;;;;;;5107492;28;20135;-93
2023/06/03 11:06:25;;;;;;;4.18;1.00;;;20.70;43.70;;;;;;5097572;28;20407;-93
2023/06/03 11:09:05;;;;;;;1.30;0.90;;;20.80;44.40;;;;;;5114468;28;20047;-91
2023/06/03 11:11:48;;;;;;;1.23;0.80;;;20.90;45.10;;;;;;5115171;28;20515;-93
2023/06/03 11:14:26;;;;;;;1.02;0.77;;;21.10;45.00;;;;;;5095569;28;20058;-94
2023/06/03 11:16:58;;;;;;;4.97;1.67;;;21.00;45.00;;;;;;5103577;28;20074;-93
2023/06/03 11:19:38;;;;;;;1.02;0.75;;;21.10;45.80;;;;;;5115434;28;20047;-95
2023/06/03 11:22:05;;;;;;;1.20;0.73;;;21.10;45.40;;;;;;5115229;28;20048;-94
2023/06/03 11:24:50;;;;;;;1.85;0.80;;;21.20;45.30;;;;;;5115813;28;20047;-93
2023/06/03 11:27:29;;;;;;;1.02;0.57;;;21.10;44.90;;;;;;5074135;28;20566;-94
2023/06/03 11:29:57;;;;;;;1.00;0.90;;;21.20;44.70;;;;;;5073116;28;20453;-94
2023/06/03 11:32:36;;;;;;;2.28;0.93;;;21.00;45.00;;;;;;5080387;28;20390;-93
2023/06/03 11:35:10;;;;;;;1.50;0.80;;;21.10;44.80;;;;;;5114163;28;20075;-91
2023/06/03 11:37:48;;;;;;;2.03;0.68;;;21.10;44.50;;;;;;5113986;28;20043;-93
2023/06/03 11:40:22;;;;;;;1.45;0.77;;;21.00;43.60;;;;;;5094546;28;20123;-93
2023/06/03 11:43:00;;;;;;;3.85;0.65;;;20.90;44.20;;;;;;5074316;28;20040;-94
2023/06/03 11:45:29;;;;;;;1.90;0.80;;;21.00;43.60;;;;;;5073378;28;20131;-91
2023/06/03 11:47:57;;;;;;;2.45;0.90;;;21.00;44.60;;;;;;5093045;28;20088;-92
2023/06/03 11:50:29;;;;;;;2.67;0.85;;;21.00;44.20;;;;;;5084211;28;20046;-90
2023/06/03 11:52:55;;;;;;;2.03;0.98;;;21.00;43.80;;;;;;5114296;28;20036;-92
2023/06/03 11:55:23;;;;;;;1.17;0.80;;;21.00;44.40;;;;;;5098350;28;20880;-90
2023/06/03 11:58:22;;;;;;;3.15;1.00;;;21.20;44.60;;;;;;5094781;28;20039;-94
2023/06/03 12:01:06;;;;;;;3.67;0.90;;;21.20;44.10;;;;;;5079620;28;20094;-94
2023/06/03 12:03:32;;;;;;;3.22;0.73;;;21.20;44.30;;;;;;5074112;28;20097;-92
2023/06/03 12:06:03;;;;;;;5.20;1.20;;;21.50;44.60;;;;;;5073150;28;20119;-93
2023/06/03 12:08:55;;;;;;;2.25;0.57;;;21.50;44.80;;;;;;5085031;28;20049;-91
2023/06/03 12:11:31;;;;;;;4.97;0.90;;;21.40;42.20;;;;;;5091079;28;20042;-94
2023/06/03 12:13:57;;;;;;;1.23;0.70;;;21.50;43.70;;;;;;5076310;28;20056;-94
2023/06/03 12:16:33;;;;;;;1.00;0.90;;;21.50;43.70;;;;;;5077411;28;20032;-91
2023/06/03 12:19:10;;;;;;;1.38;0.80;;;21.50;43.50;;;;;;5077544;28;20032;-92
2023/06/03 12:21:37;;;;;;;1.08;0.77;;;21.60;43.70;;;;;;5075279;28;20131;-89
2023/06/03 12:24:11;;;;;;;2.22;0.80;;;22.00;43.80;;;;;;5073118;28;20049;-90
2023/06/03 12:26:41;;;;;;;1.00;0.90;;;21.70;43.30;;;;;;5071726;28;20048;-90
2023/06/03 12:29:10;;;;;;;1.30;0.88;;;21.60;44.30;;;;;;5054783;28;20150;-90
2023/06/03 12:31:36;;;;;;;1.50;0.73;;;21.80;44.10;;;;;;5055674;28;20064;-90
2023/06/03 12:34:03;;;;;;;1.08;0.70;;;21.70;43.90;;;;;;5071360;28;20117;-92
2023/06/03 12:36:48;;;;;;;1.23;0.70;;;21.70;43.90;;;;;;5055388;28;20037;-91
2023/06/03 12:39:15;;;;;;;2.53;0.73;;;21.80;43.40;;;;;;5060333;28;20039;-88
2023/06/03 12:42:00;;;;;;;4.57;3.28;;;22.00;43.90;;;;;;5084858;28;20040;-90
2023/06/03 12:44:27;;;;;;;12.40;10.73;;;22.00;43.90;;;;;;5094711;28;20353;-87
2023/06/03 12:47:05;;;;;;;1.67;1.30;;;22.10;43.80;;;;;;5110537;28;20083;-88
2023/06/03 12:49:33;;;;;;;1.42;1.00;;;22.10;42.80;;;;;;5094585;28;20066;-92
2023/06/03 12:52:24;;;;;;;4.88;2.80;;;22.40;43.50;;;;;;5082283;28;20040;-92
2023/06/03 12:54:50;;;;;;;3.90;1.63;;;22.20;43.30;;;;;;5075258;28;20043;-92
2023/06/03 12:57:26;;;;;;;2.05;1.00;;;22.30;43.40;;;;;;5088137;28;20407;-93
2023/06/03 12:59:58;;;;;;;1.73;1.00;;;22.30;42.80;;;;;;5074579;28;20117;-93